createdAt,value
2022-09-26T00:07:22.519Z,12.01
2022-09-26T00:17:28.132Z,12.03
2022-09-26T00:27:29.779Z,11.99
2022-09-26T00:37:35.994Z,12.06
2022-09-26T00:47:58.115Z,11.99
2022-09-26T00:58:32.086Z,12.03
2022-09-26T01:08:59.731Z,12.04
2022-09-26T01:19:49.854Z,11.99
2022-09-26T01:30:08.296Z,12.03
2022-09-26T01:40:27.957Z,12.05
2022-09-26T01:50:48.444Z,12.08
2022-09-26T02:00:51.702Z,12.16
2022-09-26T02:11:05.337Z,12.12
2022-09-26T02:21:12.995Z,12.10
2022-09-26T02:31:22.176Z,12.15
2022-09-26T02:41:48.533Z,12.14
2022-09-26T02:52:21.836Z,11.99
2022-09-26T03:02:49.667Z,11.98
2022-09-26T03:12:54.204Z,12.00
2022-09-26T03:22:56.386Z,11.90
2022-09-26T03:33:03.401Z,11.83
2022-09-26T03:43:05.005Z,11.83
2022-09-26T03:53:06.725Z,11.86
2022-09-26T04:03:10.545Z,11.92
2022-09-26T04:13:23.577Z,11.89
2022-09-26T04:23:37.396Z,11.99
2022-09-26T04:33:39.893Z,12.03
2022-09-26T04:43:43.082Z,12.10
2022-09-26T04:53:48.532Z,12.17
2022-09-26T05:03:51.413Z,12.16
2022-09-26T05:14:10.852Z,12.17
2022-09-26T05:24:32.729Z,12.16
2022-09-26T05:34:34.764Z,12.22
2022-09-26T05:44:36.728Z,12.17
2022-09-26T05:54:39.417Z,12.33
2022-09-26T06:04:43.471Z,12.15
2022-09-26T06:14:46.978Z,12.13
2022-09-26T06:24:48.876Z,12.44
2022-09-26T06:34:53.935Z,12.54
2022-09-26T06:44:55.519Z,12.52
2022-09-26T06:54:57.295Z,12.62
2022-09-26T07:05:05.866Z,12.76
2022-09-26T07:15:08.002Z,12.73
2022-09-26T07:25:11.184Z,13.18
2022-09-26T07:35:13.910Z,13.33
2022-09-26T07:45:28.001Z,13.48
2022-09-26T07:55:56.165Z,14.02
2022-09-26T08:06:04.481Z,13.66
2022-09-26T08:16:06.484Z,13.65
2022-09-26T08:26:08.369Z,13.75
2022-09-26T08:36:18.985Z,13.78
2022-09-26T08:46:53.346Z,14.65
2022-09-26T08:57:19.835Z,14.48
2022-09-26T09:07:24.640Z,14.93
2022-09-26T09:17:52.643Z,15.87
2022-09-26T09:28:15.460Z,16.82
2022-09-26T09:38:20.556Z,19.84
2022-09-26T09:48:27.304Z,20.52
2022-09-26T09:58:35.063Z,21.86
2022-09-26T10:08:42.826Z,19.88
2022-09-26T10:19:04.267Z,20.91
2022-09-26T10:29:34.464Z,19.60
2022-09-26T10:39:58.187Z,20.70
2022-09-26T10:50:09.850Z,19.02
2022-09-26T11:00:24.242Z,17.36
2022-09-26T11:10:34.213Z,18.28
2022-09-26T11:20:47.616Z,17.53
2022-09-26T11:30:56.667Z,17.15
2022-09-26T11:41:36.654Z,18.47
2022-09-26T11:52:00.845Z,18.73
2022-09-26T12:02:32.660Z,22.11
2022-09-26T12:12:43.426Z,22.53
2022-09-26T12:23:06.968Z,31.06
2022-09-26T12:33:30.620Z,25.48
2022-09-26T12:43:46.438Z,23.17
2022-09-26T12:54:07.371Z,29.54
2022-09-26T13:04:31.027Z,30.20
2022-09-26T13:15:19.191Z,21.96
2022-09-26T13:25:37.133Z,20.59
2022-09-26T13:35:43.713Z,19.26
2022-09-26T13:46:16.264Z,18.95
2022-09-26T13:56:37.831Z,18.66
2022-09-26T14:07:30.332Z,19.08
2022-09-26T14:17:44.117Z,22.78
2022-09-26T14:27:46.933Z,23.18
2022-09-26T14:37:50.995Z,21.26
2022-09-26T14:48:32.577Z,21.84
2022-09-26T14:58:54.343Z,21.58
2022-09-26T15:08:59.756Z,20.71
2022-09-26T15:19:47.654Z,19.63
2022-09-26T15:29:52.870Z,18.77
2022-09-26T15:39:54.865Z,18.42
2022-09-26T15:50:08.646Z,17.69
2022-09-26T16:00:15.152Z,17.41
2022-09-26T16:10:33.343Z,16.91
2022-09-26T16:20:36.122Z,16.47
2022-09-26T16:30:42.144Z,15.67
2022-09-26T16:40:56.763Z,15.19
2022-09-26T16:51:28.279Z,14.62
2022-09-26T17:01:54.157Z,14.15
2022-09-26T17:12:27.003Z,13.93
2022-09-26T17:22:30.031Z,13.61
2022-09-26T17:32:37.585Z,13.36
2022-09-26T17:42:40.250Z,13.17
2022-09-26T17:52:42.850Z,13.04
2022-09-26T18:02:47.505Z,12.83
2022-09-26T18:12:58.004Z,12.64
2022-09-26T18:23:00.402Z,12.65
2022-09-26T18:33:07.585Z,12.54
2022-09-26T18:43:16.115Z,12.53
2022-09-26T18:53:20.558Z,12.37
2022-09-26T19:03:28.917Z,12.37
2022-09-26T19:13:32.004Z,12.16
2022-09-26T19:23:40.909Z,12.21
2022-09-26T19:33:45.755Z,12.20
2022-09-26T19:43:47.572Z,12.31
2022-09-26T19:53:50.017Z,12.24
2022-09-26T20:03:55.449Z,12.28
2022-09-26T20:14:18.089Z,12.30
2022-09-26T20:24:20.105Z,12.24
2022-09-26T20:34:21.944Z,12.28
2022-09-26T20:44:28.633Z,12.40
2022-09-26T20:54:33.780Z,12.28
2022-09-26T21:04:35.431Z,12.32
2022-09-26T21:14:44.422Z,12.21
2022-09-26T21:24:49.263Z,12.21
2022-09-26T21:34:57.879Z,12.15
2022-09-26T21:45:05.903Z,12.21
2022-09-26T21:55:12.520Z,12.20
2022-09-26T22:05:16.748Z,12.24
2022-09-26T22:15:20.089Z,12.22
2022-09-26T22:25:21.737Z,12.19
2022-09-26T22:35:24.355Z,12.40
2022-09-26T22:45:25.960Z,12.29
2022-09-26T22:55:27.686Z,12.19
2022-09-26T23:05:29.362Z,12.18
2022-09-26T23:15:31.939Z,12.03
2022-09-26T23:25:34.054Z,11.90
2022-09-26T23:35:35.776Z,11.84
2022-09-26T23:45:37.512Z,11.64
2022-09-26T23:55:39.402Z,11.63
